sensor_id;sensor_type;location;lat;lon;timestamp;temperature;humidity
66710;DHT22;53624;0.000;0.000;2022-10-31T00:00:20;18.60;99.90
66710;DHT22;53624;0.000;0.000;2022-10-31T00:02:48;18.60;99.90
66710;DHT22;53624;0.000;0.000;2022-10-31T00:05:17;18.60;99.90
66710;DHT22;53624;0.000;0.000;2022-10-31T00:07:44;18.60;99.90
66710;DHT22;53624;0.000;0.000;2022-10-31T00:10:12;18.60;99.90
66710;DHT22;53624;0.000;0.000;2022-10-31T00:12:39;18.60;99.90
66710;DHT22;53624;0.000;0.000;2022-10-31T00:15:07;18.60;99.90
66710;DHT22;53624;0.000;0.000;2022-10-31T00:17:34;18.60;99.90
66710;DHT22;53624;0.000;0.000;2022-10-31T00:20:02;18.50;99.90
66710;DHT22;53624;0.000;0.000;2022-10-31T00:22:31;18.50;99.90
66710;DHT22;53624;0.000;0.000;2022-10-31T00:24:58;18.50;99.90
66710;DHT22;53624;0.000;0.000;2022-10-31T00:27:26;18.50;99.90
66710;DHT22;53624;0.000;0.000;2022-10-31T00:29:54;18.50;99.90
66710;DHT22;53624;0.000;0.000;2022-10-31T00:32:22;18.50;99.90
66710;DHT22;53624;0.000;0.000;2022-10-31T00:34:49;18.50;99.90
66710;DHT22;53624;0.000;0.000;2022-10-31T00:37:17;18.50;99.90
66710;DHT22;53624;0.000;0.000;2022-10-31T00:39:46;18.50;99.90
66710;DHT22;53624;0.000;0.000;2022-10-31T00:42:15;18.50;99.90
66710;DHT22;53624;0.000;0.000;2022-10-31T00:44:44;18.50;99.90
66710;DHT22;53624;0.000;0.000;2022-10-31T00:47:12;18.50;99.90
66710;DHT22;53624;0.000;0.000;2022-10-31T00:49:39;18.50;99.90
66710;DHT22;53624;0.000;0.000;2022-10-31T00:52:07;18.50;99.90
66710;DHT22;53624;0.000;0.000;2022-10-31T00:54:34;18.50;99.90
66710;DHT22;53624;0.000;0.000;2022-10-31T00:57:03;18.50;99.90
66710;DHT22;53624;0.000;0.000;2022-10-31T00:59:30;18.50;99.90
66710;DHT22;53624;0.000;0.000;2022-10-31T01:01:58;18.50;99.90
66710;DHT22;53624;0.000;0.000;2022-10-31T01:04:26;18.50;99.90
66710;DHT22;53624;0.000;0.000;2022-10-31T01:06:54;18.40;99.90
66710;DHT22;53624;0.000;0.000;2022-10-31T01:09:23;18.50;99.90
66710;DHT22;53624;0.000;0.000;2022-10-31T01:11:51;18.50;99.90
66710;DHT22;53624;0.000;0.000;2022-10-31T01:14:20;18.40;99.90
66710;DHT22;53624;0.000;0.000;2022-10-31T01:16:47;18.40;99.90
66710;DHT22;53624;0.000;0.000;2022-10-31T01:19:15;18.40;99.90
66710;DHT22;53624;0.000;0.000;2022-10-31T01:21:42;18.40;99.90
66710;DHT22;53624;0.000;0.000;2022-10-31T01:24:10;18.40;99.90
66710;DHT22;53624;0.000;0.000;2022-10-31T01:26:38;18.40;99.90
66710;DHT22;53624;0.000;0.000;2022-10-31T01:29:06;18.40;99.90
66710;DHT22;53624;0.000;0.000;2022-10-31T01:31:37;18.40;99.90
66710;DHT22;53624;0.000;0.000;2022-10-31T01:34:05;18.40;99.90
66710;DHT22;53624;0.000;0.000;2022-10-31T01:36:35;18.40;99.90
66710;DHT22;53624;0.000;0.000;2022-10-31T01:39:04;18.40;99.90
66710;DHT22;53624;0.000;0.000;2022-10-31T01:41:32;18.40;99.90
66710;DHT22;53624;0.000;0.000;2022-10-31T01:44:44;18.40;99.90
66710;DHT22;53624;0.000;0.000;2022-10-31T01:46:55;18.40;99.90
66710;DHT22;53624;0.000;0.000;2022-10-31T01:49:24;18.40;99.90
66710;DHT22;53624;0.000;0.000;2022-10-31T01:51:54;18.40;99.90
66710;DHT22;53624;0.000;0.000;2022-10-31T01:54:25;18.40;99.90
66710;DHT22;53624;0.000;0.000;2022-10-31T01:56:54;18.40;99.90
66710;DHT22;53624;0.000;0.000;2022-10-31T01:59:23;18.40;99.90
66710;DHT22;53624;0.000;0.000;2022-10-31T02:01:54;18.40;99.90
66710;DHT22;53624;0.000;0.000;2022-10-31T02:04:22;18.40;99.90
66710;DHT22;53624;0.000;0.000;2022-10-31T02:06:53;18.40;99.90
66710;DHT22;53624;0.000;0.000;2022-10-31T02:09:23;18.30;99.90
66710;DHT22;53624;0.000;0.000;2022-10-31T02:11:51;18.30;99.90
66710;DHT22;53624;0.000;0.000;2022-10-31T02:14:20;18.30;99.90
66710;DHT22;53624;0.000;0.000;2022-10-31T02:16:50;18.30;99.90
66710;DHT22;53624;0.000;0.000;2022-10-31T02:19:21;18.30;99.90
66710;DHT22;53624;0.000;0.000;2022-10-31T02:21:52;18.30;99.90
66710;DHT22;53624;0.000;0.000;2022-10-31T02:24:32;18.30;99.90
66710;DHT22;53624;0.000;0.000;2022-10-31T02:27:10;18.30;99.90
66710;DHT22;53624;0.000;0.000;2022-10-31T02:29:47;18.30;99.90
66710;DHT22;53624;0.000;0.000;2022-10-31T02:32:25;18.30;99.90
66710;DHT22;53624;0.000;0.000;2022-10-31T02:34:56;18.30;99.90
66710;DHT22;53624;0.000;0.000;2022-10-31T02:37:26;18.30;99.90
66710;DHT22;53624;0.000;0.000;2022-10-31T02:39:59;18.30;99.90
66710;DHT22;53624;0.000;0.000;2022-10-31T02:42:51;18.20;99.90
66710;DHT22;53624;0.000;0.000;2022-10-31T02:45:24;18.20;99.90
66710;DHT22;53624;0.000;0.000;2022-10-31T02:47:56;18.20;99.90
66710;DHT22;53624;0.000;0.000;2022-10-31T02:50:26;18.20;99.90
66710;DHT22;53624;0.000;0.000;2022-10-31T02:52:54;18.20;99.90
66710;DHT22;53624;0.000;0.000;2022-10-31T02:55:46;18.20;99.90
66710;DHT22;53624;0.000;0.000;2022-10-31T02:58:15;18.20;99.90
66710;DHT22;53624;0.000;0.000;2022-10-31T03:00:47;18.20;99.90
66710;DHT22;53624;0.000;0.000;2022-10-31T03:03:19;18.20;99.90
66710;DHT22;53624;0.000;0.000;2022-10-31T03:05:51;18.20;99.90
66710;DHT22;53624;0.000;0.000;2022-10-31T03:08:23;18.20;99.90
66710;DHT22;53624;0.000;0.000;2022-10-31T03:10:53;18.20;99.90
66710;DHT22;53624;0.000;0.000;2022-10-31T03:13:24;18.20;99.90
66710;DHT22;53624;0.000;0.000;2022-10-31T03:15:54;18.10;99.90
66710;DHT22;53624;0.000;0.000;2022-10-31T03:18:32;18.10;99.90
66710;DHT22;53624;0.000;0.000;2022-10-31T03:21:01;18.10;99.90
66710;DHT22;53624;0.000;0.000;2022-10-31T03:23:34;18.10;99.90
66710;DHT22;53624;0.000;0.000;2022-10-31T03:26:03;18.10;99.90
66710;DHT22;53624;0.000;0.000;2022-10-31T03:28:33;18.10;99.90
66710;DHT22;53624;0.000;0.000;2022-10-31T03:31:04;18.10;99.90
66710;DHT22;53624;0.000;0.000;2022-10-31T03:33:34;18.10;99.90
66710;DHT22;53624;0.000;0.000;2022-10-31T03:36:03;18.10;99.90
66710;DHT22;53624;0.000;0.000;2022-10-31T03:38:32;18.10;99.90
66710;DHT22;53624;0.000;0.000;2022-10-31T03:41:01;18.10;99.90
66710;DHT22;53624;0.000;0.000;2022-10-31T03:43:32;18.10;99.90
66710;DHT22;53624;0.000;0.000;2022-10-31T03:46:00;18.00;99.90
66710;DHT22;53624;0.000;0.000;2022-10-31T03:48:28;18.00;99.90
66710;DHT22;53624;0.000;0.000;2022-10-31T03:51:01;18.10;99.90
66710;DHT22;53624;0.000;0.000;2022-10-31T03:53:33;18.00;99.90
66710;DHT22;53624;0.000;0.000;2022-10-31T03:56:04;18.00;99.90
66710;DHT22;53624;0.000;0.000;2022-10-31T03:58:36;18.00;99.90
66710;DHT22;53624;0.000;0.000;2022-10-31T04:01:06;18.00;99.90
66710;DHT22;53624;0.000;0.000;2022-10-31T04:03:35;18.00;99.90
66710;DHT22;53624;0.000;0.000;2022-10-31T04:06:08;18.00;99.90
66710;DHT22;53624;0.000;0.000;2022-10-31T04:08:39;18.00;99.90
66710;DHT22;53624;0.000;0.000;2022-10-31T04:11:07;18.00;99.90
66710;DHT22;53624;0.000;0.000;2022-10-31T04:13:39;18.00;99.90
66710;DHT22;53624;0.000;0.000;2022-10-31T04:16:13;18.00;99.90
66710;DHT22;53624;0.000;0.000;2022-10-31T04:18:42;18.00;99.90
66710;DHT22;53624;0.000;0.000;2022-10-31T04:21:11;18.00;99.90
66710;DHT22;53624;0.000;0.000;2022-10-31T04:23:39;18.00;99.90
66710;DHT22;53624;0.000;0.000;2022-10-31T04:26:17;18.00;99.90
66710;DHT22;53624;0.000;0.000;2022-10-31T04:28:44;18.00;99.90
66710;DHT22;53624;0.000;0.000;2022-10-31T04:31:12;17.90;99.90
66710;DHT22;53624;0.000;0.000;2022-10-31T04:33:42;18.00;99.90
66710;DHT22;53624;0.000;0.000;2022-10-31T04:36:10;18.00;99.90
66710;DHT22;53624;0.000;0.000;2022-10-31T04:38:39;18.00;99.90
66710;DHT22;53624;0.000;0.000;2022-10-31T04:41:15;17.90;99.90
66710;DHT22;53624;0.000;0.000;2022-10-31T04:43:52;17.90;99.90
66710;DHT22;53624;0.000;0.000;2022-10-31T04:46:20;17.90;99.90
66710;DHT22;53624;0.000;0.000;2022-10-31T04:48:47;17.90;99.90
66710;DHT22;53624;0.000;0.000;2022-10-31T04:51:15;17.90;99.90
66710;DHT22;53624;0.000;0.000;2022-10-31T04:53:44;17.90;99.90
66710;DHT22;53624;0.000;0.000;2022-10-31T04:56:37;17.90;99.90
66710;DHT22;53624;0.000;0.000;2022-10-31T04:59:11;17.90;99.90
66710;DHT22;53624;0.000;0.000;2022-10-31T05:01:53;17.90;99.90
66710;DHT22;53624;0.000;0.000;2022-10-31T05:04:27;17.90;99.90
66710;DHT22;53624;0.000;0.000;2022-10-31T05:06:55;17.90;99.90
66710;DHT22;53624;0.000;0.000;2022-10-31T05:09:24;17.90;99.90
66710;DHT22;53624;0.000;0.000;2022-10-31T05:11:52;17.90;99.90
66710;DHT22;53624;0.000;0.000;2022-10-31T05:14:42;17.90;99.90
66710;DHT22;53624;0.000;0.000;2022-10-31T05:17:28;17.90;99.90
66710;DHT22;53624;0.000;0.000;2022-10-31T05:20:10;17.80;99.90
66710;DHT22;53624;0.000;0.000;2022-10-31T05:23:04;17.80;99.90
66710;DHT22;53624;0.000;0.000;2022-10-31T05:25:34;17.80;99.90
66710;DHT22;53624;0.000;0.000;2022-10-31T05:28:03;17.80;99.90
66710;DHT22;53624;0.000;0.000;2022-10-31T05:30:31;17.80;99.90
66710;DHT22;53624;0.000;0.000;2022-10-31T05:32:59;17.80;99.90
66710;DHT22;53624;0.000;0.000;2022-10-31T05:35:49;17.80;99.90
66710;DHT22;53624;0.000;0.000;2022-10-31T05:38:55;17.80;99.90
66710;DHT22;53624;0.000;0.000;2022-10-31T05:41:32;17.80;99.90
66710;DHT22;53624;0.000;0.000;2022-10-31T05:44:19;17.80;99.90
66710;DHT22;53624;0.000;0.000;2022-10-31T05:47:05;17.80;99.90
66710;DHT22;53624;0.000;0.000;2022-10-31T05:49:51;17.80;99.90
66710;DHT22;53624;0.000;0.000;2022-10-31T05:52:37;17.80;99.90
66710;DHT22;53624;0.000;0.000;2022-10-31T05:55:15;17.80;99.90
66710;DHT22;53624;0.000;0.000;2022-10-31T05:57:58;17.80;99.90
66710;DHT22;53624;0.000;0.000;2022-10-31T06:00:26;17.80;99.90
66710;DHT22;53624;0.000;0.000;2022-10-31T06:03:03;17.80;99.90
66710;DHT22;53624;0.000;0.000;2022-10-31T06:05:44;17.80;99.90
66710;DHT22;53624;0.000;0.000;2022-10-31T06:08:11;17.70;99.90
66710;DHT22;53624;0.000;0.000;2022-10-31T06:10:40;17.80;99.90
66710;DHT22;53624;0.000;0.000;2022-10-31T06:13:08;17.70;99.90
66710;DHT22;53624;0.000;0.000;2022-10-31T06:15:58;17.80;99.90
66710;DHT22;53624;0.000;0.000;2022-10-31T06:18:33;17.70;99.90
66710;DHT22;53624;0.000;0.000;2022-10-31T06:21:01;17.70;99.90
66710;DHT22;53624;0.000;0.000;2022-10-31T06:23:28;17.70;99.90
66710;DHT22;53624;0.000;0.000;2022-10-31T06:26:15;17.70;99.90
66710;DHT22;53624;0.000;0.000;2022-10-31T06:28:44;17.70;99.90
66710;DHT22;53624;0.000;0.000;2022-10-31T06:31:24;17.70;99.90
66710;DHT22;53624;0.000;0.000;2022-10-31T06:33:52;17.70;99.90
66710;DHT22;53624;0.000;0.000;2022-10-31T06:36:19;17.70;99.90
66710;DHT22;53624;0.000;0.000;2022-10-31T06:38:47;17.70;99.90
66710;DHT22;53624;0.000;0.000;2022-10-31T06:41:17;17.70;99.90
66710;DHT22;53624;0.000;0.000;2022-10-31T06:43:49;17.70;99.90
66710;DHT22;53624;0.000;0.000;2022-10-31T06:46:29;17.70;99.90
66710;DHT22;53624;0.000;0.000;2022-10-31T06:49:26;17.80;99.90
66710;DHT22;53624;0.000;0.000;2022-10-31T06:51:56;17.80;99.90
66710;DHT22;53624;0.000;0.000;2022-10-31T06:54:24;17.70;99.90
66710;DHT22;53624;0.000;0.000;2022-10-31T06:56:51;17.70;99.90
66710;DHT22;53624;0.000;0.000;2022-10-31T06:59:20;17.80;99.90
66710;DHT22;53624;0.000;0.000;2022-10-31T07:02:08;17.80;99.90
66710;DHT22;53624;0.000;0.000;2022-10-31T07:04:37;17.80;99.90
66710;DHT22;53624;0.000;0.000;2022-10-31T07:07:04;17.90;99.90
66710;DHT22;53624;0.000;0.000;2022-10-31T07:09:33;17.90;99.90
66710;DHT22;53624;0.000;0.000;2022-10-31T07:12:03;17.90;99.90
66710;DHT22;53624;0.000;0.000;2022-10-31T07:14:36;17.90;99.90
66710;DHT22;53624;0.000;0.000;2022-10-31T07:17:03;17.90;99.90
66710;DHT22;53624;0.000;0.000;2022-10-31T07:19:34;17.90;99.90
66710;DHT22;53624;0.000;0.000;2022-10-31T07:22:02;18.00;99.90
66710;DHT22;53624;0.000;0.000;2022-10-31T07:24:31;18.00;99.90
66710;DHT22;53624;0.000;0.000;2022-10-31T07:27:17;18.00;99.90
66710;DHT22;53624;0.000;0.000;2022-10-31T07:29:49;18.00;99.90
66710;DHT22;53624;0.000;0.000;2022-10-31T07:32:16;18.10;99.90
66710;DHT22;53624;0.000;0.000;2022-10-31T07:34:52;18.10;99.90
66710;DHT22;53624;0.000;0.000;2022-10-31T07:37:22;18.10;99.90
66710;DHT22;53624;0.000;0.000;2022-10-31T07:39:51;18.10;99.90
66710;DHT22;53624;0.000;0.000;2022-10-31T07:42:19;18.10;99.90
66710;DHT22;53624;0.000;0.000;2022-10-31T07:44:46;18.10;99.90
66710;DHT22;53624;0.000;0.000;2022-10-31T07:47:51;18.10;99.90
66710;DHT22;53624;0.000;0.000;2022-10-31T07:50:39;18.10;99.90
66710;DHT22;53624;0.000;0.000;2022-10-31T07:53:29;18.20;99.90
66710;DHT22;53624;0.000;0.000;2022-10-31T07:56:11;18.20;99.90
66710;DHT22;53624;0.000;0.000;2022-10-31T07:58:39;18.20;99.90
66710;DHT22;53624;0.000;0.000;2022-10-31T08:01:07;18.30;99.90
66710;DHT22;53624;0.000;0.000;2022-10-31T08:03:45;18.30;99.90
66710;DHT22;53624;0.000;0.000;2022-10-31T08:06:38;18.30;99.90
66710;DHT22;53624;0.000;0.000;2022-10-31T08:09:25;18.30;99.90
66710;DHT22;53624;0.000;0.000;2022-10-31T08:11:54;18.30;99.90
66710;DHT22;53624;0.000;0.000;2022-10-31T08:14:21;18.30;99.90
66710;DHT22;53624;0.000;0.000;2022-10-31T08:16:51;18.30;99.90
66710;DHT22;53624;0.000;0.000;2022-10-31T08:19:21;18.40;99.90
66710;DHT22;53624;0.000;0.000;2022-10-31T08:21:50;18.50;99.90
66710;DHT22;53624;0.000;0.000;2022-10-31T08:24:18;18.60;99.90
66710;DHT22;53624;0.000;0.000;2022-10-31T08:26:45;18.80;99.90
66710;DHT22;53624;0.000;0.000;2022-10-31T08:29:13;18.80;99.90
66710;DHT22;53624;0.000;0.000;2022-10-31T08:31:41;18.90;99.90
66710;DHT22;53624;0.000;0.000;2022-10-31T08:34:29;18.90;99.90
66710;DHT22;53624;0.000;0.000;2022-10-31T08:37:15;19.00;99.90
66710;DHT22;53624;0.000;0.000;2022-10-31T08:39:48;19.10;99.90
66710;DHT22;53624;0.000;0.000;2022-10-31T08:42:15;19.20;99.90
66710;DHT22;53624;0.000;0.000;2022-10-31T08:44:43;19.30;99.90
66710;DHT22;53624;0.000;0.000;2022-10-31T08:47:11;19.40;99.90
66710;DHT22;53624;0.000;0.000;2022-10-31T08:49:40;19.40;99.90
66710;DHT22;53624;0.000;0.000;2022-10-31T08:52:07;19.70;99.90
66710;DHT22;53624;0.000;0.000;2022-10-31T08:54:38;19.80;99.90
66710;DHT22;53624;0.000;0.000;2022-10-31T08:57:24;20.00;99.90
66710;DHT22;53624;0.000;0.000;2022-10-31T08:59:52;20.10;99.90
66710;DHT22;53624;0.000;0.000;2022-10-31T09:02:36;20.20;99.90
66710;DHT22;53624;0.000;0.000;2022-10-31T09:05:06;20.40;99.90
66710;DHT22;53624;0.000;0.000;2022-10-31T09:07:34;20.50;99.90
66710;DHT22;53624;0.000;0.000;2022-10-31T09:10:01;20.70;99.90
66710;DHT22;53624;0.000;0.000;2022-10-31T09:12:32;20.80;99.90
66710;DHT22;53624;0.000;0.000;2022-10-31T09:15:29;20.80;99.90
66710;DHT22;53624;0.000;0.000;2022-10-31T09:18:18;20.80;99.90
66710;DHT22;53624;0.000;0.000;2022-10-31T09:20:57;20.90;99.90
66710;DHT22;53624;0.000;0.000;2022-10-31T09:23:26;21.00;99.90
66710;DHT22;53624;0.000;0.000;2022-10-31T09:25:54;21.00;99.90
66710;DHT22;53624;0.000;0.000;2022-10-31T09:28:36;21.20;99.90
66710;DHT22;53624;0.000;0.000;2022-10-31T09:31:08;21.30;99.90
66710;DHT22;53624;0.000;0.000;2022-10-31T09:34:04;21.50;99.90
66710;DHT22;53624;0.000;0.000;2022-10-31T09:36:39;21.70;99.90
66710;DHT22;53624;0.000;0.000;2022-10-31T09:39:11;21.80;99.90
66710;DHT22;53624;0.000;0.000;2022-10-31T09:41:47;21.80;99.90
66710;DHT22;53624;0.000;0.000;2022-10-31T09:44:18;21.90;99.90
66710;DHT22;53624;0.000;0.000;2022-10-31T09:46:50;22.00;99.90
66710;DHT22;53624;0.000;0.000;2022-10-31T09:49:33;22.10;99.90
66710;DHT22;53624;0.000;0.000;2022-10-31T09:52:04;22.10;99.90
66710;DHT22;53624;0.000;0.000;2022-10-31T09:54:36;22.30;99.90
66710;DHT22;53624;0.000;0.000;2022-10-31T09:57:05;22.20;99.70
66710;DHT22;53624;0.000;0.000;2022-10-31T09:59:38;22.10;99.70
66710;DHT22;53624;0.000;0.000;2022-10-31T10:02:10;22.20;99.50
66710;DHT22;53624;0.000;0.000;2022-10-31T10:04:43;22.20;99.50
66710;DHT22;53624;0.000;0.000;2022-10-31T10:07:22;22.30;99.40
66710;DHT22;53624;0.000;0.000;2022-10-31T10:10:13;22.20;99.30
66710;DHT22;53624;0.000;0.000;2022-10-31T10:13:13;22.20;99.20
66710;DHT22;53624;0.000;0.000;2022-10-31T10:15:48;22.30;99.10
66710;DHT22;53624;0.000;0.000;2022-10-31T10:18:21;22.40;98.70
66710;DHT22;53624;0.000;0.000;2022-10-31T10:20:55;22.30;98.80
66710;DHT22;53624;0.000;0.000;2022-10-31T10:23:31;22.30;98.90
66710;DHT22;53624;0.000;0.000;2022-10-31T10:26:01;22.40;98.90
66710;DHT22;53624;0.000;0.000;2022-10-31T10:28:30;22.40;98.90
66710;DHT22;53624;0.000;0.000;2022-10-31T10:31:05;22.40;98.70
66710;DHT22;53624;0.000;0.000;2022-10-31T10:33:35;22.50;98.50
66710;DHT22;53624;0.000;0.000;2022-10-31T10:36:04;22.50;98.60
66710;DHT22;53624;0.000;0.000;2022-10-31T10:38:36;22.60;98.60
66710;DHT22;53624;0.000;0.000;2022-10-31T10:41:05;22.50;98.20
66710;DHT22;53624;0.000;0.000;2022-10-31T10:43:36;22.60;98.20
66710;DHT22;53624;0.000;0.000;2022-10-31T10:46:16;22.20;98.20
66710;DHT22;53624;0.000;0.000;2022-10-31T10:49:04;22.40;98.80
66710;DHT22;53624;0.000;0.000;2022-10-31T10:51:35;23.50;97.10
66710;DHT22;53624;0.000;0.000;2022-10-31T10:54:13;23.50;96.80
66710;DHT22;53624;0.000;0.000;2022-10-31T10:56:53;23.80;96.60
66710;DHT22;53624;0.000;0.000;2022-10-31T10:59:24;24.30;95.30
66710;DHT22;53624;0.000;0.000;2022-10-31T11:01:51;24.30;95.00
66710;DHT22;53624;0.000;0.000;2022-10-31T11:04:28;24.10;94.70
66710;DHT22;53624;0.000;0.000;2022-10-31T11:07:03;24.10;94.60
66710;DHT22;53624;0.000;0.000;2022-10-31T11:09:32;24.40;95.20
66710;DHT22;53624;0.000;0.000;2022-10-31T11:12:00;24.60;94.40
66710;DHT22;53624;0.000;0.000;2022-10-31T11:14:33;24.40;94.00
66710;DHT22;53624;0.000;0.000;2022-10-31T11:17:07;24.50;93.70
66710;DHT22;53624;0.000;0.000;2022-10-31T11:19:36;24.10;94.30
66710;DHT22;53624;0.000;0.000;2022-10-31T11:22:08;23.60;93.90
66710;DHT22;53624;0.000;0.000;2022-10-31T11:24:42;23.40;94.70
66710;DHT22;53624;0.000;0.000;2022-10-31T11:27:12;23.60;95.10
66710;DHT22;53624;0.000;0.000;2022-10-31T11:29:40;24.30;93.90
66710;DHT22;53624;0.000;0.000;2022-10-31T11:32:14;24.60;92.60
66710;DHT22;53624;0.000;0.000;2022-10-31T11:34:43;23.40;94.00
66710;DHT22;53624;0.000;0.000;2022-10-31T11:37:12;23.40;95.30
66710;DHT22;53624;0.000;0.000;2022-10-31T11:39:43;24.20;94.00
66710;DHT22;53624;0.000;0.000;2022-10-31T11:42:14;24.20;92.80
66710;DHT22;53624;0.000;0.000;2022-10-31T11:44:42;23.80;94.20
66710;DHT22;53624;0.000;0.000;2022-10-31T11:47:12;24.40;93.40
66710;DHT22;53624;0.000;0.000;2022-10-31T11:49:42;24.60;93.70
66710;DHT22;53624;0.000;0.000;2022-10-31T11:52:12;25.30;91.60
66710;DHT22;53624;0.000;0.000;2022-10-31T11:54:44;25.20;91.80
66710;DHT22;53624;0.000;0.000;2022-10-31T11:57:26;25.50;92.20
66710;DHT22;53624;0.000;0.000;2022-10-31T11:59:54;24.60;92.00
66710;DHT22;53624;0.000;0.000;2022-10-31T12:02:22;25.30;90.80
66710;DHT22;53624;0.000;0.000;2022-10-31T12:04:52;24.80;92.70
66710;DHT22;53624;0.000;0.000;2022-10-31T12:07:22;24.00;93.70
66710;DHT22;53624;0.000;0.000;2022-10-31T12:09:51;23.90;92.30
66710;DHT22;53624;0.000;0.000;2022-10-31T12:12:25;24.30;92.50
66710;DHT22;53624;0.000;0.000;2022-10-31T12:15:03;24.60;93.30
66710;DHT22;53624;0.000;0.000;2022-10-31T12:17:34;24.80;93.70
66710;DHT22;53624;0.000;0.000;2022-10-31T12:20:05;24.60;91.60
66710;DHT22;53624;0.000;0.000;2022-10-31T12:22:46;25.20;91.90
66710;DHT22;53624;0.000;0.000;2022-10-31T12:25:20;25.40;92.60
66710;DHT22;53624;0.000;0.000;2022-10-31T12:27:55;25.80;91.70
66710;DHT22;53624;0.000;0.000;2022-10-31T12:30:26;25.90;91.30
66710;DHT22;53624;0.000;0.000;2022-10-31T12:33:11;25.90;90.20
66710;DHT22;53624;0.000;0.000;2022-10-31T12:35:50;26.00;89.60
66710;DHT22;53624;0.000;0.000;2022-10-31T12:38:26;25.60;90.90
66710;DHT22;53624;0.000;0.000;2022-10-31T12:41:02;25.20;90.70
66710;DHT22;53624;0.000;0.000;2022-10-31T12:43:41;25.20;90.10
66710;DHT22;53624;0.000;0.000;2022-10-31T12:46:13;25.00;91.00
66710;DHT22;53624;0.000;0.000;2022-10-31T12:48:48;25.20;90.90
66710;DHT22;53624;0.000;0.000;2022-10-31T12:51:21;25.20;90.70
66710;DHT22;53624;0.000;0.000;2022-10-31T12:53:55;24.70;92.10
66710;DHT22;53624;0.000;0.000;2022-10-31T12:56:31;24.30;92.90
66710;DHT22;53624;0.000;0.000;2022-10-31T12:59:01;24.50;91.90
66710;DHT22;53624;0.000;0.000;2022-10-31T13:01:33;24.30;92.00
66710;DHT22;53624;0.000;0.000;2022-10-31T13:04:02;24.00;92.50
66710;DHT22;53624;0.000;0.000;2022-10-31T13:06:31;23.70;93.70
66710;DHT22;53624;0.000;0.000;2022-10-31T13:09:01;23.70;93.10
66710;DHT22;53624;0.000;0.000;2022-10-31T13:11:32;23.20;93.30
66710;DHT22;53624;0.000;0.000;2022-10-31T13:14:02;22.90;94.80
66710;DHT22;53624;0.000;0.000;2022-10-31T13:16:34;22.90;94.70
66710;DHT22;53624;0.000;0.000;2022-10-31T13:19:03;22.80;93.60
66710;DHT22;53624;0.000;0.000;2022-10-31T13:21:34;22.50;95.20
66710;DHT22;53624;0.000;0.000;2022-10-31T13:24:04;22.60;95.20
66710;DHT22;53624;0.000;0.000;2022-10-31T13:26:37;22.60;94.10
66710;DHT22;53624;0.000;0.000;2022-10-31T13:29:09;22.50;94.80
66710;DHT22;53624;0.000;0.000;2022-10-31T13:31:39;22.50;95.60
66710;DHT22;53624;0.000;0.000;2022-10-31T13:34:09;22.60;95.20
66710;DHT22;53624;0.000;0.000;2022-10-31T13:36:39;22.60;96.00
66710;DHT22;53624;0.000;0.000;2022-10-31T13:39:12;22.60;96.10
66710;DHT22;53624;0.000;0.000;2022-10-31T13:41:45;22.70;95.10
66710;DHT22;53624;0.000;0.000;2022-10-31T13:44:13;22.60;95.50
66710;DHT22;53624;0.000;0.000;2022-10-31T13:46:42;22.40;95.50
66710;DHT22;53624;0.000;0.000;2022-10-31T13:52:05;22.20;95.70
66710;DHT22;53624;0.000;0.000;2022-10-31T13:54:33;22.20;95.50
66710;DHT22;53624;0.000;0.000;2022-10-31T13:57:06;22.00;95.10
66710;DHT22;53624;0.000;0.000;2022-10-31T13:59:34;21.90;95.80
66710;DHT22;53624;0.000;0.000;2022-10-31T14:02:12;21.90;96.00
66710;DHT22;53624;0.000;0.000;2022-10-31T14:04:44;21.70;95.60
66710;DHT22;53624;0.000;0.000;2022-10-31T14:07:12;21.60;95.20
66710;DHT22;53624;0.000;0.000;2022-10-31T14:09:41;21.50;96.40
66710;DHT22;53624;0.000;0.000;2022-10-31T14:12:23;21.50;96.30
66710;DHT22;53624;0.000;0.000;2022-10-31T14:14:53;21.70;95.60
66710;DHT22;53624;0.000;0.000;2022-10-31T14:17:22;21.60;96.70
66710;DHT22;53624;0.000;0.000;2022-10-31T14:19:59;21.40;96.30
66710;DHT22;53624;0.000;0.000;2022-10-31T14:22:38;21.40;95.20
66710;DHT22;53624;0.000;0.000;2022-10-31T14:25:27;21.40;95.50
66710;DHT22;53624;0.000;0.000;2022-10-31T14:27:57;21.30;95.10
66710;DHT22;53624;0.000;0.000;2022-10-31T14:30:26;21.30;95.50
66710;DHT22;53624;0.000;0.000;2022-10-31T14:32:54;21.40;96.20
66710;DHT22;53624;0.000;0.000;2022-10-31T14:35:24;21.30;97.00
66710;DHT22;53624;0.000;0.000;2022-10-31T14:37:57;21.30;96.20
66710;DHT22;53624;0.000;0.000;2022-10-31T14:40:30;21.20;95.60
66710;DHT22;53624;0.000;0.000;2022-10-31T14:45:49;21.20;95.40
66710;DHT22;53624;0.000;0.000;2022-10-31T14:48:24;21.30;97.10
66710;DHT22;53624;0.000;0.000;2022-10-31T14:50:58;21.30;97.50
66710;DHT22;53624;0.000;0.000;2022-10-31T14:53:28;21.30;97.80
66710;DHT22;53624;0.000;0.000;2022-10-31T14:55:57;21.10;96.80
66710;DHT22;53624;0.000;0.000;2022-10-31T14:58:25;21.20;96.50
66710;DHT22;53624;0.000;0.000;2022-10-31T15:00:59;21.00;97.80
66710;DHT22;53624;0.000;0.000;2022-10-31T15:03:28;21.10;97.10
66710;DHT22;53624;0.000;0.000;2022-10-31T15:05:58;21.10;97.00
66710;DHT22;53624;0.000;0.000;2022-10-31T15:08:27;21.10;97.30
66710;DHT22;53624;0.000;0.000;2022-10-31T15:10:56;21.20;97.40
66710;DHT22;53624;0.000;0.000;2022-10-31T15:13:23;21.20;97.70
66710;DHT22;53624;0.000;0.000;2022-10-31T15:15:53;21.20;97.70
66710;DHT22;53624;0.000;0.000;2022-10-31T15:18:24;21.20;97.90
66710;DHT22;53624;0.000;0.000;2022-10-31T15:20:52;21.20;97.70
66710;DHT22;53624;0.000;0.000;2022-10-31T15:23:21;21.30;97.80
66710;DHT22;53624;0.000;0.000;2022-10-31T15:25:50;21.30;97.60
66710;DHT22;53624;0.000;0.000;2022-10-31T15:28:21;21.30;97.80
66710;DHT22;53624;0.000;0.000;2022-10-31T15:30:50;21.30;97.50
66710;DHT22;53624;0.000;0.000;2022-10-31T15:33:24;21.30;98.40
66710;DHT22;53624;0.000;0.000;2022-10-31T15:35:55;21.30;98.00
66710;DHT22;53624;0.000;0.000;2022-10-31T15:38:23;21.30;98.20
66710;DHT22;53624;0.000;0.000;2022-10-31T15:40:51;21.30;98.00
66710;DHT22;53624;0.000;0.000;2022-10-31T15:43:19;21.30;97.90
66710;DHT22;53624;0.000;0.000;2022-10-31T15:45:47;21.20;98.10
66710;DHT22;53624;0.000;0.000;2022-10-31T15:48:15;21.20;97.70
66710;DHT22;53624;0.000;0.000;2022-10-31T15:50:46;21.20;98.00
66710;DHT22;53624;0.000;0.000;2022-10-31T15:53:16;21.20;98.10
66710;DHT22;53624;0.000;0.000;2022-10-31T15:55:46;21.10;98.40
66710;DHT22;53624;0.000;0.000;2022-10-31T15:58:16;21.10;98.40
66710;DHT22;53624;0.000;0.000;2022-10-31T16:00:44;21.10;97.90
66710;DHT22;53624;0.000;0.000;2022-10-31T16:03:21;21.10;97.40
66710;DHT22;53624;0.000;0.000;2022-10-31T16:05:52;21.10;97.40
66710;DHT22;53624;0.000;0.000;2022-10-31T16:08:21;21.10;97.60
66710;DHT22;53624;0.000;0.000;2022-10-31T16:10:50;21.10;97.50
66710;DHT22;53624;0.000;0.000;2022-10-31T16:13:18;21.00;98.10
66710;DHT22;53624;0.000;0.000;2022-10-31T16:15:48;21.00;97.60
66710;DHT22;53624;0.000;0.000;2022-10-31T16:18:15;21.00;97.40
66710;DHT22;53624;0.000;0.000;2022-10-31T16:20:47;21.00;97.40
66710;DHT22;53624;0.000;0.000;2022-10-31T16:23:17;21.00;97.20